Wetterdaten: Donnerstag, 14.05.2015
Datum Zeit Temp. A. Feuchte A. Luftdruck Regen Wind Richtung Richtung Sonnenschein ET UV Solar Taupunkt Windchill Windben Empfang
14.05.2015 00:00 14,8 C 87 % 1006,2 hPa 0,0 l/m 0,0 km/h (0 Bft) SO 125 0 min 0,000 mm 0,0 UV-I 0 W/m 12,7 C 14,8 C 0,0 km/h (0 Bft) 0,00 %
14.05.2015 00:15 15,4 C 86 % 1006,1 hPa 0,0 l/m 0,0 km/h (0 Bft) S-SW 195 0 min 0,000 mm 0,0 UV-I 0 W/m 13,1 C 15,4 C 0,0 km/h (0 Bft) 0,00 %
14.05.2015 00:30 15,0 C 83 % 1007,7 hPa 11,1 l/m 7,9 km/h (2 Bft) NO 48 0 min 0,000 mm 0,0 UV-I 0 W/m 12,1 C 14,2 C 11,9 km/h (2 Bft) 0,00 %
14.05.2015 00:45 13,1 C 92 % 1010,6 hPa 4,8 l/m 0,0 km/h (0 Bft) S 191 0 min 0,000 mm 0,0 UV-I 0 W/m 11,8 C 13,1 C 0,0 km/h (0 Bft) 0,00 %
14.05.2015 01:00 12,7 C 94 % 1011,1 hPa 3,6 l/m 1,4 km/h (1 Bft) SW 230 0 min 0,000 mm 0,0 UV-I 0 W/m 11,8 C 12,7 C 4,0 km/h (1 Bft) 0,00 %
14.05.2015 01:15 13,1 C 95 % 1010,0 hPa 1,8 l/m 0,0 km/h (0 Bft) N 350 0 min 0,000 mm 0,0 UV-I 0 W/m 12,3 C 13,1 C 0,0 km/h (0 Bft) 0,00 %
14.05.2015 01:30 12,9 C 93 % 1008,8 hPa 0,3 l/m 0,0 km/h (0 Bft) S 179 0 min 0,000 mm 0,0 UV-I 0 W/m 11,8 C 12,9 C 0,0 km/h (0 Bft) 0,00 %
14.05.2015 01:45 12,8 C 94 % 1008,7 hPa 0,0 l/m 0,0 km/h (0 Bft) NO 51 0 min 0,000 mm 0,0 UV-I 0 W/m 11,9 C 12,8 C 0,0 km/h (0 Bft) 0,00 %
14.05.2015 02:00 12,7 C 95 % 1008,7 hPa 0,0 l/m 0,4 km/h (0 Bft) S 173 0 min 0,000 mm 0,0 UV-I 0 W/m 11,9 C 12,7 C 4,0 km/h (1 Bft) 0,00 %
14.05.2015 02:15 12,6 C 96 % 1008,2 hPa 0,0 l/m 0,0 km/h (0 Bft) S-SW 195 0 min 0,000 mm 0,0 UV-I 0 W/m 12,0 C 12,6 C 0,0 km/h (0 Bft) 0,00 %
14.05.2015 02:30 12,4 C 97 % 1007,8 hPa 0,0 l/m 0,0 km/h (0 Bft) S 189 0 min 0,000 mm 0,0 UV-I 0 W/m 11,9 C 12,4 C 0,0 km/h (0 Bft) 0,00 %
14.05.2015 02:45 12,2 C 97 % 1008,2 hPa 0,0 l/m 0,0 km/h (0 Bft) S-SW 195 0 min 0,000 mm 0,0 UV-I 0 W/m 11,7 C 12,2 C 0,0 km/h (0 Bft) 0,00 %
14.05.2015 03:00 12,2 C 97 % 1008,2 hPa 0,0 l/m 0,0 km/h (0 Bft) S-SW 201 0 min 0,000 mm 0,0 UV-I 0 W/m 11,7 C 12,2 C 0,0 km/h (0 Bft) 0,00 %
14.05.2015 03:15 12,2 C 97 % 1008,4 hPa 0,0 l/m 0,0 km/h (0 Bft) S 184 0 min 0,000 mm 0,0 UV-I 0 W/m 11,7 C 12,2 C 0,0 km/h (0 Bft) 0,00 %
14.05.2015 03:30 12,4 C 96 % 1007,1 hPa 1,8 l/m 0,7 km/h (0 Bft) O-SO 105 0 min 0,000 mm 0,0 UV-I 0 W/m 11,8 C 12,4 C 4,0 km/h (1 Bft) 0,00 %
14.05.2015 03:45 12,4 C 97 % 1008,3 hPa 0,0 l/m 0,0 km/h (0 Bft) S-SW 192 0 min 0,000 mm 0,0 UV-I 0 W/m 11,9 C 12,4 C 0,0 km/h (0 Bft) 0,00 %
14.05.2015 04:00 12,4 C 97 % 1008,1 hPa 0,3 l/m 0,0 km/h (0 Bft) S-SW 194 0 min 0,000 mm 0,0 UV-I 0 W/m 11,9 C 12,4 C 0,0 km/h (0 Bft) 0,00 %
14.05.2015 04:15 12,4 C 97 % 1007,3 hPa 0,0 l/m 0,0 km/h (0 Bft) S 177 0 min 0,000 mm 0,0 UV-I 0 W/m 11,9 C 12,4 C 0,0 km/h (0 Bft) 0,00 %
14.05.2015 04:30 12,3 C 97 % 1007,0 hPa 0,0 l/m 0,0 km/h (0 Bft) S 181 0 min 0,000 mm 0,0 UV-I 0 W/m 11,8 C 12,3 C 0,0 km/h (0 Bft) 0,00 %
14.05.2015 04:45 11,9 C 97 % 1007,0 hPa 0,0 l/m 0,0 km/h (0 Bft) S-SW 198 0 min 0,000 mm 0,0 UV-I 0 W/m 11,4 C 11,9 C 0,0 km/h (0 Bft) 0,00 %
14.05.2015 05:00 11,9 C 97 % 1008,0 hPa 0,0 l/m 0,0 km/h (0 Bft) SW 219 0 min 0,000 mm 0,0 UV-I 0 W/m 11,4 C 11,9 C 0,0 km/h (0 Bft) 0,00 %
14.05.2015 05:15 12,3 C 97 % 1008,1 hPa 0,6 l/m 4,0 km/h (1 Bft) W-SW 256 0 min 0,000 mm 0,0 UV-I 0 W/m 11,8 C 12,3 C 7,9 km/h (2 Bft) 0,00 %
14.05.2015 05:30 12,4 C 99 % 1008,0 hPa 0,0 l/m 3,2 km/h (1 Bft) S-SW 196 0 min 0,000 mm 0,0 UV-I 0 W/m 12,2 C 12,4 C 11,9 km/h (2 Bft) 0,00 %
14.05.2015 05:45 12,9 C 99 % 1007,9 hPa 0,0 l/m 0,4 km/h (0 Bft) S 174 0 min 0,000 mm 0,0 UV-I 1 W/m 12,7 C 12,9 C 4,0 km/h (1 Bft) 0,00 %
14.05.2015 06:00 13,1 C 99 % 1007,8 hPa 0,0 l/m 0,4 km/h (0 Bft) SW 223 0 min 0,000 mm 0,0 UV-I 0 W/m 12,9 C 13,1 C 4,0 km/h (1 Bft) 0,00 %
14.05.2015 06:15 12,9 C 98 % 1008,7 hPa 0,3 l/m 1,8 km/h (1 Bft) O-SO 109 0 min 0,000 mm 0,0 UV-I 6 W/m 12,6 C 12,9 C 4,0 km/h (1 Bft) 0,00 %
14.05.2015 06:30 13,0 C 96 % 1008,6 hPa 0,3 l/m 2,2 km/h (1 Bft) W-SW 256 0 min 0,000 mm 0,0 UV-I 3 W/m 12,4 C 13,0 C 4,0 km/h (1 Bft) 0,00 %
14.05.2015 06:45 13,2 C 96 % 1008,7 hPa 0,0 l/m 1,8 km/h (1 Bft) O 83 0 min 0,000 mm 1,0 UV-I 74 W/m 12,6 C 13,2 C 4,0 km/h (1 Bft) 0,00 %
14.05.2015 07:00 13,5 C 94 % 1008,8 hPa 0,0 l/m 4,3 km/h (1 Bft) S 183 15 min 0,000 mm 1,0 UV-I 130 W/m 12,6 C 13,5 C 7,9 km/h (2 Bft) 0,00 %
14.05.2015 07:15 14,0 C 94 % 1008,8 hPa 0,0 l/m 2,2 km/h (1 Bft) SW 224 0 min 0,000 mm 1,0 UV-I 105 W/m 13,0 C 14,0 C 4,0 km/h (1 Bft) 0,00 %
14.05.2015 07:30 15,0 C 90 % 1008,7 hPa 0,0 l/m 3,2 km/h (1 Bft) W-SW 238 15 min 0,000 mm 1,0 UV-I 369 W/m 13,4 C 15,0 C 7,9 km/h (2 Bft) 0,00 %
14.05.2015 07:45 15,2 C 87 % 1009,2 hPa 0,0 l/m 4,3 km/h (1 Bft) SW 225 15 min 0,000 mm 2,0 UV-I 326 W/m 13,0 C 15,2 C 7,9 km/h (2 Bft) 0,00 %
14.05.2015 08:00 14,9 C 84 % 1009,2 hPa 0,0 l/m 6,8 km/h (2 Bft) N-NW 328 15 min 0,000 mm 1,0 UV-I 275 W/m 12,2 C 14,7 C 11,9 km/h (2 Bft) 0,00 %
14.05.2015 08:15 15,6 C 80 % 1009,1 hPa 0,0 l/m 0,4 km/h (0 Bft) S 188 15 min 0,000 mm 2,0 UV-I 415 W/m 12,2 C 15,6 C 4,0 km/h (1 Bft) 0,00 %
14.05.2015 08:30 16,3 C 79 % 1008,9 hPa 0,0 l/m 9,7 km/h (2 Bft) W-NW 296 15 min 0,000 mm 2,0 UV-I 496 W/m 12,6 C 14,7 C 11,9 km/h (2 Bft) 0,00 %
14.05.2015 08:45 16,2 C 79 % 1009,3 hPa 0,0 l/m 0,4 km/h (0 Bft) W-SW 245 15 min 0,000 mm 2,0 UV-I 538 W/m 12,6 C 16,2 C 4,0 km/h (1 Bft) 0,00 %
14.05.2015 09:00 17,2 C 74 % 1009,2 hPa 0,0 l/m 10,8 km/h (2 Bft) SW 235 15 min 0,000 mm 3,0 UV-I 557 W/m 12,5 C 15,2 C 15,8 km/h (3 Bft) 0,00 %
14.05.2015 09:15 17,0 C 74 % 1009,2 hPa 0,0 l/m 1,8 km/h (1 Bft) NW 305 15 min 0,000 mm 3,0 UV-I 377 W/m 12,3 C 17,0 C 7,9 km/h (2 Bft) 0,00 %
14.05.2015 09:30 17,4 C 71 % 1009,1 hPa 0,0 l/m 9,4 km/h (2 Bft) W-SW 254 15 min 0,000 mm 3,0 UV-I 569 W/m 12,1 C 16,0 C 15,8 km/h (3 Bft) 0,00 %
14.05.2015 09:45 17,8 C 69 % 1009,1 hPa 0,0 l/m 1,8 km/h (1 Bft) W-NW 287 15 min 0,000 mm 3,0 UV-I 723 W/m 12,0 C 17,8 C 4,0 km/h (1 Bft) 0,00 %
14.05.2015 10:00 17,2 C 69 % 1008,8 hPa 0,0 l/m 6,8 km/h (2 Bft) NW 305 0 min 0,000 mm 2,0 UV-I 321 W/m 11,5 C 17,0 C 7,9 km/h (2 Bft) 0,00 %
14.05.2015 10:15 16,7 C 71 % 1009,0 hPa 0,0 l/m 3,2 km/h (1 Bft) N-NO 15 0 min 0,000 mm 1,0 UV-I 249 W/m 11,4 C 16,7 C 7,9 km/h (2 Bft) 0,00 %
14.05.2015 10:30 16,2 C 71 % 1009,2 hPa 0,0 l/m 3,2 km/h (1 Bft) W-SW 244 0 min 0,000 mm 2,0 UV-I 100 W/m 10,9 C 16,2 C 7,9 km/h (2 Bft) 0,00 %
14.05.2015 10:45 16,9 C 69 % 1008,9 hPa 0,0 l/m 7,9 km/h (2 Bft) SW 231 0 min 0,000 mm 1,0 UV-I 337 W/m 11,2 C 16,1 C 15,8 km/h (3 Bft) 0,00 %
14.05.2015 11:00 15,9 C 72 % 1008,9 hPa 0,0 l/m 4,0 km/h (1 Bft) W-SW 258 0 min 0,000 mm 0,0 UV-I 81 W/m 10,9 C 15,9 C 7,9 km/h (2 Bft) 0,00 %
14.05.2015 11:15 15,9 C 69 % 1009,1 hPa 0,0 l/m 2,2 km/h (1 Bft) W 281 0 min 0,000 mm 1,0 UV-I 68 W/m 10,2 C 15,9 C 4,0 km/h (1 Bft) 0,00 %
14.05.2015 11:30 15,9 C 74 % 1009,1 hPa 0,0 l/m 0,0 km/h (0 Bft) W-SW 244 0 min 0,000 mm 2,0 UV-I 96 W/m 11,3 C 15,9 C 0,0 km/h (0 Bft) 0,00 %
14.05.2015 11:45 17,4 C 67 % 1009,2 hPa 0,0 l/m 0,0 km/h (0 Bft) S 178 0 min 0,000 mm 2,0 UV-I 335 W/m 11,2 C 17,4 C 0,0 km/h (0 Bft) 0,00 %
14.05.2015 12:00 18,1 C 63 % 1009,2 hPa 0,0 l/m 0,0 km/h (0 Bft) S-SW 209 0 min 0,000 mm 4,0 UV-I 319 W/m 10,9 C 18,1 C 0,0 km/h (0 Bft) 0,00 %
14.05.2015 12:15 19,7 C 57 % 1008,4 hPa 0,0 l/m 0,7 km/h (0 Bft) S 177 15 min 0,000 mm 3,0 UV-I 589 W/m 10,9 C 19,7 C 4,0 km/h (1 Bft) 0,00 %
14.05.2015 12:30 19,1 C 59 % 1008,8 hPa 0,0 l/m 0,4 km/h (0 Bft) S-SW 192 0 min 0,000 mm 1,0 UV-I 352 W/m 10,9 C 19,1 C 4,0 km/h (1 Bft) 0,00 %
14.05.2015 12:45 18,0 C 62 % 1008,8 hPa 0,0 l/m 4,0 km/h (1 Bft) SW 234 0 min 0,000 mm 1,0 UV-I 121 W/m 10,6 C 18,0 C 7,9 km/h (2 Bft) 0,00 %
14.05.2015 13:00 18,3 C 58 % 1008,7 hPa 0,0 l/m 0,0 km/h (0 Bft) SO 141 0 min 0,000 mm 2,0 UV-I 285 W/m 9,9 C 18,3 C 0,0 km/h (0 Bft) 0,00 %
14.05.2015 13:15 17,0 C 64 % 1009,0 hPa 0,0 l/m 7,2 km/h (2 Bft) W-NW 299 0 min 0,000 mm 1,0 UV-I 162 W/m 10,1 C 16,6 C 11,9 km/h (2 Bft) 0,00 %
14.05.2015 13:30 16,5 C 67 % 1009,1 hPa 0,0 l/m 6,8 km/h (2 Bft) NO 49 0 min 0,000 mm 1,0 UV-I 120 W/m 10,4 C 16,3 C 15,8 km/h (3 Bft) 0,00 %
14.05.2015 13:45 17,8 C 61 % 1008,8 hPa 0,0 l/m 2,9 km/h (1 Bft) SW 233 0 min 0,000 mm 4,0 UV-I 303 W/m 10,2 C 17,8 C 4,0 km/h (1 Bft) 0,00 %
14.05.2015 14:00 18,8 C 61 % 1008,4 hPa 0,0 l/m 1,8 km/h (1 Bft) S 184 15 min 0,000 mm 3,0 UV-I 711 W/m 11,1 C 18,8 C 4,0 km/h (1 Bft) 0,00 %
14.05.2015 14:15 18,4 C 61 % 1008,4 hPa 0,0 l/m 11,5 km/h (2 Bft) W-SW 256 0 min 0,000 mm 3,0 UV-I 406 W/m 10,7 C 16,4 C 15,8 km/h (3 Bft) 0,00 %
14.05.2015 14:30 18,0 C 63 % 1008,6 hPa 0,0 l/m 4,7 km/h (1 Bft) S 190 0 min 0,000 mm 2,0 UV-I 433 W/m 10,8 C 18,0 C 7,9 km/h (2 Bft) 0,00 %
14.05.2015 14:45 17,4 C 63 % 1008,5 hPa 0,0 l/m 0,0 km/h (0 Bft) SO 125 0 min 0,000 mm 1,0 UV-I 225 W/m 10,3 C 17,4 C 0,0 km/h (0 Bft) 0,00 %
14.05.2015 15:00 16,9 C 65 % 1008,4 hPa 0,0 l/m 0,4 km/h (0 Bft) W-NW 298 0 min 0,000 mm 1,0 UV-I 80 W/m 10,3 C 16,9 C 4,0 km/h (1 Bft) 0,00 %
14.05.2015 15:15 16,7 C 70 % 1008,6 hPa 0,0 l/m 4,3 km/h (1 Bft) W-SW 252 0 min 0,000 mm 1,0 UV-I 116 W/m 11,2 C 16,7 C 7,9 km/h (2 Bft) 0,00 %
14.05.2015 15:30 16,5 C 68 % 1008,4 hPa 0,0 l/m 7,9 km/h (2 Bft) W-SW 256 0 min 0,000 mm 1,0 UV-I 168 W/m 10,6 C 15,7 C 11,9 km/h (2 Bft) 0,00 %
14.05.2015 15:45 17,1 C 63 % 1008,1 hPa 0,0 l/m 5,4 km/h (1 Bft) W-SW 243 0 min 0,000 mm 2,0 UV-I 287 W/m 10,0 C 17,1 C 7,9 km/h (2 Bft) 0,00 %
14.05.2015 16:00 17,6 C 63 % 1008,1 hPa 0,0 l/m 7,9 km/h (2 Bft) NO 47 0 min 0,000 mm 2,0 UV-I 316 W/m 10,5 C 16,9 C 11,9 km/h (2 Bft) 0,00 %
14.05.2015 16:15 17,3 C 64 % 1008,2 hPa 0,0 l/m 4,3 km/h (1 Bft) NW 325 0 min 0,000 mm 1,0 UV-I 223 W/m 10,4 C 17,3 C 7,9 km/h (2 Bft) 0,00 %
14.05.2015 16:30 17,2 C 65 % 1008,2 hPa 0,0 l/m 1,8 km/h (1 Bft) SW 223 0 min 0,000 mm 1,0 UV-I 154 W/m 10,6 C 17,2 C 4,0 km/h (1 Bft) 0,00 %
14.05.2015 16:45 17,4 C 64 % 1008,2 hPa 0,0 l/m 3,2 km/h (1 Bft) W-SW 256 0 min 0,000 mm 2,0 UV-I 216 W/m 10,5 C 17,4 C 7,9 km/h (2 Bft) 0,00 %
14.05.2015 17:00 17,3 C 66 % 1008,0 hPa 0,0 l/m 0,4 km/h (0 Bft) S 171 0 min 0,000 mm 1,0 UV-I 225 W/m 10,9 C 17,3 C 4,0 km/h (1 Bft) 0,00 %
14.05.2015 17:15 16,8 C 68 % 1008,2 hPa 0,0 l/m 3,2 km/h (1 Bft) SW 232 0 min 0,000 mm 1,0 UV-I 218 W/m 10,9 C 16,8 C 4,0 km/h (1 Bft) 0,00 %
14.05.2015 17:30 16,9 C 64 % 1008,2 hPa 0,0 l/m 0,7 km/h (0 Bft) O-SO 105 0 min 0,000 mm 2,0 UV-I 170 W/m 10,0 C 16,9 C 4,0 km/h (1 Bft) 0,00 %
14.05.2015 17:45 17,2 C 64 % 1008,0 hPa 0,0 l/m 2,9 km/h (1 Bft) S-SW 211 15 min 0,000 mm 1,0 UV-I 301 W/m 10,3 C 17,2 C 7,9 km/h (2 Bft) 0,00 %
14.05.2015 18:00 17,0 C 64 % 1008,1 hPa 0,0 l/m 1,4 km/h (1 Bft) W 273 15 min 0,000 mm 1,0 UV-I 232 W/m 10,1 C 17,0 C 4,0 km/h (1 Bft) 0,00 %
14.05.2015 18:15 16,9 C 65 % 1008,1 hPa 0,0 l/m 1,4 km/h (1 Bft) S 175 0 min 0,000 mm 1,0 UV-I 186 W/m 10,3 C 16,9 C 4,0 km/h (1 Bft) 0,00 %
14.05.2015 18:30 17,0 C 66 % 1008,1 hPa 0,0 l/m 1,4 km/h (1 Bft) SW 221 15 min 0,000 mm 1,0 UV-I 290 W/m 10,6 C 17,0 C 4,0 km/h (1 Bft) 0,00 %
14.05.2015 18:45 16,7 C 67 % 1007,9 hPa 0,0 l/m 0,0 km/h (0 Bft) W-SW 252 15 min 0,000 mm 1,0 UV-I 178 W/m 10,5 C 16,7 C 0,0 km/h (0 Bft) 0,00 %
14.05.2015 19:00 16,2 C 69 % 1008,3 hPa 0,0 l/m 0,0 km/h (0 Bft) SO 131 0 min 0,000 mm 1,0 UV-I 99 W/m 10,5 C 16,2 C 0,0 km/h (0 Bft) 0,00 %
14.05.2015 19:15 15,9 C 70 % 1008,3 hPa 0,0 l/m 0,0 km/h (0 Bft) S 178 0 min 0,000 mm 0,0 UV-I 81 W/m 10,4 C 15,9 C 0,0 km/h (0 Bft) 0,00 %
14.05.2015 19:30 15,8 C 70 % 1008,5 hPa 0,0 l/m 0,0 km/h (0 Bft) S-SW 209 0 min 0,000 mm 0,0 UV-I 57 W/m 10,3 C 15,8 C 0,0 km/h (0 Bft) 0,00 %
14.05.2015 19:45 15,7 C 71 % 1008,6 hPa 0,0 l/m 0,0 km/h (0 Bft) S 181 0 min 0,000 mm 0,0 UV-I 49 W/m 10,5 C 15,7 C 0,0 km/h (0 Bft) 0,00 %
14.05.2015 20:00 15,5 C 73 % 1008,5 hPa 0,0 l/m 0,0 km/h (0 Bft) S 185 0 min 0,000 mm 0,0 UV-I 34 W/m 10,7 C 15,5 C 0,0 km/h (0 Bft) 0,00 %
14.05.2015 20:15 15,1 C 74 % 1008,4 hPa 0,0 l/m 0,0 km/h (0 Bft) S 178 0 min 0,000 mm 0,0 UV-I 6 W/m 10,5 C 15,1 C 0,0 km/h (0 Bft) 0,00 %
14.05.2015 20:30 14,7 C 76 % 1008,6 hPa 0,0 l/m 0,0 km/h (0 Bft) S 181 0 min 0,000 mm 0,0 UV-I 0 W/m 10,5 C 14,7 C 0,0 km/h (0 Bft) 0,00 %
14.05.2015 20:45 14,5 C 78 % 1008,7 hPa 0,0 l/m 0,0 km/h (0 Bft) S 179 0 min 0,000 mm 0,0 UV-I 0 W/m 10,7 C 14,5 C 0,0 km/h (0 Bft) 0,00 %
14.05.2015 21:00 14,4 C 75 % 1008,8 hPa 0,0 l/m 0,0 km/h (0 Bft) S 180 0 min 0,000 mm 0,0 UV-I 0 W/m 10,0 C 14,4 C 0,0 km/h (0 Bft) 0,00 %
14.05.2015 21:15 14,4 C 77 % 1009,0 hPa 0,0 l/m 0,0 km/h (0 Bft) S 184 0 min 0,000 mm 0,0 UV-I 0 W/m 10,4 C 14,4 C 0,0 km/h (0 Bft) 0,00 %
14.05.2015 21:30 13,9 C 78 % 1008,8 hPa 0,0 l/m 0,0 km/h (0 Bft) S 180 0 min 0,000 mm 0,0 UV-I 0 W/m 10,1 C 13,9 C 0,0 km/h (0 Bft) 0,00 %
14.05.2015 21:45 13,6 C 80 % 1008,8 hPa 0,0 l/m 0,0 km/h (0 Bft) S 187 0 min 0,000 mm 0,0 UV-I 0 W/m 10,2 C 13,6 C 0,0 km/h (0 Bft) 0,00 %
14.05.2015 22:00 13,2 C 82 % 1009,0 hPa 0,0 l/m 0,0 km/h (0 Bft) S 188 0 min 0,000 mm 0,0 UV-I 0 W/m 10,2 C 13,2 C 0,0 km/h (0 Bft) 0,00 %
14.05.2015 22:15 12,9 C 82 % 1008,9 hPa 0,0 l/m 0,0 km/h (0 Bft) S 183 0 min 0,000 mm 0,0 UV-I 0 W/m 9,9 C 12,9 C 0,0 km/h (0 Bft) 0,00 %
14.05.2015 22:30 12,6 C 83 % 1008,8 hPa 0,0 l/m 0,0 km/h (0 Bft) S 188 0 min 0,000 mm 0,0 UV-I 0 W/m 9,8 C 12,6 C 0,0 km/h (0 Bft) 0,00 %
14.05.2015 22:45 12,5 C 83 % 1008,6 hPa 0,0 l/m 0,0 km/h (0 Bft) S 187 0 min 0,000 mm 0,0 UV-I 0 W/m 9,7 C 12,5 C 0,0 km/h (0 Bft) 0,00 %
14.05.2015 23:00 12,5 C 83 % 1008,7 hPa 0,0 l/m 0,0 km/h (0 Bft) S 187 0 min 0,000 mm 0,0 UV-I 0 W/m 9,7 C 12,5 C 0,0 km/h (0 Bft) 0,00 %
14.05.2015 23:15 12,6 C 84 % 1008,6 hPa 0,0 l/m 0,0 km/h (0 Bft) S 187 0 min 0,000 mm 0,0 UV-I 0 W/m 10,0 C 12,6 C 0,0 km/h (0 Bft) 0,00 %
14.05.2015 23:30 12,3 C 86 % 1008,9 hPa 0,0 l/m 0,0 km/h (0 Bft) SO 142 0 min 0,000 mm 0,0 UV-I 0 W/m 10,0 C 12,3 C 0,0 km/h (0 Bft) 0,00 %
14.05.2015 23:45 11,7 C 89 % 1008,9 hPa 0,0 l/m 0,0 km/h (0 Bft) O-SO 108 0 min 0,000 mm 0,0 UV-I 0 W/m 9,9 C 11,7 C 0,0 km/h (0 Bft) 0,00 %
_ Min-Zeit 23:45 12:15 00:15 - 00:00 - - - - - - 22:45 23:45 00:00 00:00
Minimum _ 11,7 C 57 % 1006,1 hPa - 0,0 km/h (0 Bft) - - - - - - 9,7 C 11,7 C 0,0 km/h (0 Bft) 0,00 %
_ Max-Zeit 12:15 05:30 01:00 00:30 14:15 - - 07:00 00:00 12:00 09:45 07:30 12:15 09:00 00:00
Maximum _ 19,7 C 99 % 1011,1 hPa 11,1 l/m 11,5 km/h
W-SW (2 Bft)
- - 15 min 0,000 mm 4,0 UV-I 723 W/m 13,4 C 19,7 C 15,8 km/h
SW (3 Bft)
0,00 %
Durchschnitt _ 15,1 C 79 % 1008,6 hPa #24,9 l/m 2,0 km/h (1 Bft) W-SW - #4:15 h #0,000 mm 1,7 UV-I 246 W/m 11,2 C 15,0 C 4,1 km/h (1 Bft) 0,00 %